Time;durP1;ratioP1;P1;durP2;ratioP2;P2;SDS_P1;SDS_P2;PMS_P1;PMS_P2;Temp;Humidity;BMP_temperature;BMP_pressure;BME280_temperature;BME280_humidity;BME280_pressure;Samples;Min_cycle;Max_cycle;Signal;HPM_P1;HPM_P2
2021/10/17 00:00:44;;;;;;;8.77;5.95;;;;;;;9.85;60.20;99346.09;3363161;29;20041;-74
2021/10/17 00:02:24;;;;;;;7.25;5.18;;;;;;;9.81;60.26;99348.34;3362891;29;20045;-72
2021/10/17 00:04:05;;;;;;;13.10;6.82;;;;;;;9.82;60.12;99347.31;3362937;29;20105;-72
2021/10/17 00:05:46;;;;;;;6.97;5.50;;;;;;;9.81;60.27;99345.69;3361819;29;20045;-73
2021/10/17 00:07:26;;;;;;;10.77;6.40;;;;;;;9.79;60.38;99339.72;3362482;29;20045;-73
2021/10/17 00:09:07;;;;;;;7.07;5.40;;;;;;;9.84;60.23;99347.94;3362743;29;20501;-73
2021/10/17 00:10:48;;;;;;;9.05;5.57;;;;;;;9.80;60.11;99333.38;3362636;29;20052;-73
2021/10/17 00:12:30;;;;;;;8.82;6.03;;;;;;;9.83;60.03;99343.63;3362592;29;20546;-73
2021/10/17 00:14:11;;;;;;;9.80;5.40;;;;;;;9.82;60.06;99339.31;3374590;29;20088;-73
2021/10/17 00:15:52;;;;;;;8.02;5.40;;;;;;;9.80;60.15;99344.03;3365211;29;20079;-72
2021/10/17 00:17:32;;;;;;;9.55;5.85;;;;;;;9.78;60.00;99340.72;3362501;29;20092;-73
2021/10/17 00:19:13;;;;;;;10.10;5.45;;;;;;;9.78;60.14;99343.38;3362512;29;20128;-72
2021/10/17 00:20:54;;;;;;;8.35;4.82;;;;;;;9.76;60.21;99345.44;3362761;29;20132;-73
2021/10/17 00:22:35;;;;;;;6.72;4.97;;;;;;;9.74;60.15;99344.81;3362628;29;20045;-73
2021/10/17 00:24:16;;;;;;;5.95;4.60;;;;;;;9.75;60.41;99338.47;3362908;29;20052;-73
2021/10/17 00:25:56;;;;;;;10.27;6.25;;;;;;;9.86;59.97;99348.56;3362953;29;20139;-72
2021/10/17 00:27:37;;;;;;;9.75;5.43;;;;;;;9.91;60.05;99343.44;3362519;29;20109;-72
2021/10/17 00:29:19;;;;;;;9.13;5.63;;;;;;;9.91;59.83;99342.63;3361688;29;20047;-74
2021/10/17 00:30:59;;;;;;;8.05;5.25;;;;;;;9.91;59.72;99340.78;3362399;29;20132;-72
2021/10/17 00:32:42;;;;;;;7.93;5.55;;;;;;;9.86;60.01;99337.06;3361777;29;20124;-73
2021/10/17 00:34:23;;;;;;;7.95;5.10;;;;;;;9.84;60.06;99326.66;3362423;29;20045;-72
2021/10/17 00:36:04;;;;;;;8.00;5.18;;;;;;;9.81;60.09;99333.19;3362592;29;20037;-72
2021/10/17 00:37:45;;;;;;;7.57;5.97;;;;;;;9.79;60.02;99331.75;3374434;29;20048;-72
2021/10/17 00:39:25;;;;;;;10.70;5.45;;;;;;;9.75;60.15;99328.63;3363976;29;20048;-72
2021/10/17 00:41:06;;;;;;;10.13;5.78;;;;;;;9.79;60.07;99334.41;3362206;29;20045;-72
2021/10/17 00:42:48;;;;;;;7.43;5.07;;;;;;;9.79;60.12;99339.72;3362509;29;20548;-71
2021/10/17 00:44:28;;;;;;;8.40;6.00;;;;;;;9.80;60.28;99330.72;3362472;29;20041;-72
2021/10/17 00:46:20;;;;;;;7.82;5.30;;;;;;;9.79;60.18;99342.38;3361407;29;20051;-72
2021/10/17 00:48:04;;;;;;;9.18;5.28;;;;;;;9.76;60.30;99332.16;3386076;29;20052;-72
2021/10/17 00:49:44;;;;;;;11.00;6.07;;;;;;;9.74;60.27;99334.19;3366790;29;20044;-72
2021/10/17 00:51:25;;;;;;;7.72;5.85;;;;;;;9.78;60.17;99327.41;3361410;29;20144;-74
2021/10/17 00:53:06;;;;;;;8.38;5.57;;;;;;;9.81;59.95;99324.38;3371420;29;20044;-72
2021/10/17 00:54:47;;;;;;;8.07;5.78;;;;;;;9.83;60.01;99332.97;3364923;29;20097;-72
2021/10/17 00:56:28;;;;;;;9.98;6.90;;;;;;;9.79;60.14;99335.22;3361485;29;20045;-72
2021/10/17 00:58:09;;;;;;;8.77;6.20;;;;;;;9.76;60.16;99332.16;3358872;29;20037;-72
2021/10/17 00:59:49;;;;;;;7.93;5.45;;;;;;;9.73;60.30;99328.03;3362302;29;20103;-72
2021/10/17 01:01:30;;;;;;;11.05;5.97;;;;;;;9.73;60.13;99316.56;3362123;29;20033;-71
2021/10/17 01:03:11;;;;;;;9.18;5.97;;;;;;;9.72;60.43;99326.38;3362450;29;20041;-72
2021/10/17 01:04:51;;;;;;;7.95;5.82;;;;;;;9.78;60.32;99330.09;3387223;29;20495;-72
2021/10/17 01:06:32;;;;;;;10.80;6.80;;;;;;;9.90;60.06;99328.50;3363774;29;20137;-72
2021/10/17 01:08:13;;;;;;;10.85;6.70;;;;;;;9.92;60.05;99329.13;3371231;29;20469;-73
2021/10/17 01:09:55;;;;;;;10.77;5.50;;;;;;;9.89;59.86;99334.03;3361161;29;20617;-71
2021/10/17 01:11:46;;;;;;;8.57;5.72;;;;;;;9.87;60.02;99338.75;3362331;29;20077;-72
2021/10/17 01:13:30;;;;;;;9.32;5.00;;;;;;;9.83;59.93;99333.81;3361544;29;20080;-74
2021/10/17 01:15:11;;;;;;;7.30;4.97;;;;;;;9.80;59.98;99330.72;3359986;29;20049;-73
2021/10/17 01:16:58;;;;;;;6.50;5.28;;;;;;;9.74;60.13;99335.00;3361862;29;20059;-73
2021/10/17 01:18:39;;;;;;;7.25;4.45;;;;;;;9.73;60.07;99343.16;3387078;29;20048;-72
2021/10/17 01:20:26;;;;;;;9.25;5.43;;;;;;;9.75;60.24;99341.13;3365451;29;20045;-72
2021/10/17 01:22:07;;;;;;;8.18;5.95;;;;;;;9.74;60.10;99334.19;3361105;29;20473;-73
2021/10/17 01:23:48;;;;;;;9.43;5.88;;;;;;;9.72;60.28;99338.88;3386955;29;20100;-73
2021/10/17 01:25:29;;;;;;;7.95;6.13;;;;;;;9.69;60.28;99321.47;3366110;29;20521;-72
2021/10/17 01:27:09;;;;;;;8.55;5.45;;;;;;;9.68;60.12;99329.63;3373959;29;20052;-73
2021/10/17 01:28:50;;;;;;;9.40;5.93;;;;;;;9.67;60.19;99328.00;3389495;29;20728;-72
2021/10/17 01:30:32;;;;;;;7.68;4.43;;;;;;;9.69;60.14;99320.66;3353151;29;20083;-73
2021/10/17 01:32:13;;;;;;;9.82;5.38;;;;;;;9.74;60.18;99320.88;3361516;29;20052;-73
2021/10/17 01:33:55;;;;;;;8.53;5.20;;;;;;;9.82;59.99;99328.69;3361152;29;20049;-74
2021/10/17 01:35:36;;;;;;;7.30;4.43;;;;;;;9.94;59.85;99321.78;3386955;29;20681;-72
2021/10/17 01:37:17;;;;;;;7.40;5.28;;;;;;;10.02;59.53;99320.78;3369278;29;20049;-72
2021/10/17 01:38:58;;;;;;;7.25;4.75;;;;;;;9.99;59.57;99321.16;3376078;29;20548;-72
2021/10/17 01:40:38;;;;;;;8.23;4.88;;;;;;;9.92;59.51;99329.13;3363446;29;20556;-73
2021/10/17 01:42:20;;;;;;;7.75;5.28;;;;;;;9.93;59.54;99322.78;3360971;29;20044;-72
2021/10/17 01:44:10;;;;;;;9.32;6.22;;;;;;;10.00;59.29;99323.63;3361589;29;20049;-71
2021/10/17 01:45:51;;;;;;;6.57;5.20;;;;;;;10.00;59.35;99336.94;3364297;29;20505;-72
2021/10/17 01:47:32;;;;;;;8.95;4.88;;;;;;;9.96;59.54;99325.03;3363227;29;20041;-72
2021/10/17 01:49:14;;;;;;;8.43;5.53;;;;;;;9.92;59.50;99323.00;3361165;29;20052;-71
2021/10/17 01:50:58;;;;;;;10.13;5.28;;;;;;;9.85;59.63;99320.28;3361098;29;20056;-74
2021/10/17 01:52:39;;;;;;;7.03;4.78;;;;;;;9.81;59.74;99330.53;3360848;29;20067;-72
2021/10/17 01:54:21;;;;;;;9.15;5.53;;;;;;;9.81;59.68;99319.88;3347994;29;20078;-72
2021/10/17 01:56:02;;;;;;;6.78;4.43;;;;;;;9.84;59.83;99324.00;3383980;29;20040;-72
2021/10/17 01:57:47;;;;;;;7.05;4.22;;;;;;;9.86;59.58;99319.28;3378207;29;20401;-72
2021/10/17 01:59:31;;;;;;;9.70;5.25;;;;;;;9.82;59.72;99316.19;3363190;29;20104;-72
2021/10/17 02:01:18;;;;;;;9.52;5.07;;;;;;;9.76;59.79;99317.00;3361305;29;20132;-72
2021/10/17 02:02:58;;;;;;;8.13;4.97;;;;;;;9.69;59.89;99326.78;3350316;29;20046;-73
2021/10/17 02:04:46;;;;;;;9.30;5.32;;;;;;;9.66;60.13;99316.53;3385530;29;20052;-72
2021/10/17 02:06:27;;;;;;;7.45;5.30;;;;;;;9.67;59.95;99317.34;3365457;29;20044;-72
2021/10/17 02:08:12;;;;;;;9.10;5.07;;;;;;;9.66;60.17;99318.38;3360822;29;20071;-72
2021/10/17 02:09:53;;;;;;;7.25;4.72;;;;;;;9.60;60.23;99318.16;3364102;29;20045;-72
2021/10/17 02:11:33;;;;;;;6.25;4.35;;;;;;;9.61;60.20;99308.31;3362960;29;20037;-73
2021/10/17 02:13:16;;;;;;;13.05;5.80;;;;;;;9.61;60.04;99319.78;3360524;29;20077;-73
2021/10/17 02:14:57;;;;;;;7.70;5.75;;;;;;;9.56;60.17;99316.91;3360552;29;20116;-73
2021/10/17 02:16:39;;;;;;;7.13;5.22;;;;;;;9.54;60.20;99313.59;3376023;29;20055;-73
2021/10/17 02:18:20;;;;;;;11.57;5.35;;;;;;;9.54;60.20;99310.13;3362938;29;20116;-72
2021/10/17 02:20:03;;;;;;;9.02;5.25;;;;;;;9.50;60.39;99312.38;3360486;29;20136;-72
2021/10/17 02:21:45;;;;;;;10.35;5.85;;;;;;;9.47;60.34;99312.75;3386479;29;20048;-71
2021/10/17 02:23:27;;;;;;;6.50;4.78;;;;;;;9.39;60.42;99303.09;3378688;29;20129;-73
2021/10/17 02:25:09;;;;;;;12.25;5.00;;;;;;;9.38;60.53;99309.44;3365901;29;20045;-71
2021/10/17 02:26:50;;;;;;;10.98;4.97;;;;;;;9.41;60.52;99302.09;3361103;29;20056;-73
2021/10/17 02:29:00;;;;;;;7.60;5.03;;;;;;;9.37;60.41;99297.16;3359631;29;20048;-73
2021/10/17 02:30:45;;;;;;;10.75;5.30;;;;;;;9.34;60.40;99304.69;3363508;29;20107;-71
2021/10/17 02:32:45;;;;;;;7.65;4.50;;;;;;;9.37;60.35;99299.81;3364193;29;20201;-72
2021/10/17 02:34:40;;;;;;;8.55;5.45;;;;;;;9.42;60.28;99296.53;3363499;29;20052;-72
2021/10/17 02:36:21;;;;;;;7.97;4.80;;;;;;;9.45;60.29;99304.16;3386781;29;20127;-71
2021/10/17 02:38:02;;;;;;;8.13;5.07;;;;;;;9.40;60.51;99290.63;3365913;29;20053;-73
2021/10/17 02:39:47;;;;;;;7.70;5.15;;;;;;;9.35;60.58;99295.72;3361482;29;20045;-72
2021/10/17 02:41:28;;;;;;;8.02;5.53;;;;;;;9.31;60.57;99286.47;3360740;29;20211;-72
2021/10/17 02:43:09;;;;;;;10.20;6.18;;;;;;;9.29;60.91;99293.81;3360332;29;20052;-72
2021/10/17 02:44:50;;;;;;;9.65;5.90;;;;;;;9.30;60.64;99287.50;3360231;29;20525;-73
2021/10/17 02:46:31;;;;;;;8.18;5.00;;;;;;;9.34;60.58;99281.56;3385814;29;20451;-73
2021/10/17 02:48:13;;;;;;;8.70;5.43;;;;;;;9.35;60.65;99291.22;3365032;29;20394;-72
2021/10/17 02:49:53;;;;;;;7.90;5.43;;;;;;;9.33;60.66;99281.78;3363451;29;20059;-72
2021/10/17 02:51:38;;;;;;;9.02;5.07;;;;;;;9.34;60.82;99280.75;3388333;29;20100;-73
2021/10/17 02:53:20;;;;;;;;;;;;;;;9.43;60.49;99284.91;3365883;29;20052;-72
2021/10/17 02:55:01;;;;;;;8.88;5.07;;;;;;;9.35;60.59;99277.91;3362655;29;20379;-72
2021/10/17 02:56:41;;;;;;;9.30;5.13;;;;;;;9.33;60.62;99273.81;3362684;29;20101;-73
2021/10/17 02:58:26;;;;;;;6.53;4.82;;;;;;;9.31;60.99;99273.19;3363017;29;20044;-71
2021/10/17 03:00:13;;;;;;;9.18;5.38;;;;;;;9.34;60.77;99275.44;3373347;29;20492;-73
2021/10/17 03:01:53;;;;;;;6.07;4.63;;;;;;;9.34;60.67;99272.78;3365385;29;20144;-73
2021/10/17 03:03:34;;;;;;;9.65;5.15;;;;;;;9.27;60.76;99277.25;3363364;29;20454;-72
2021/10/17 03:05:14;;;;;;;12.00;5.63;;;;;;;9.24;60.82;99281.13;3388496;29;20583;-72
2021/10/17 03:06:55;;;;;;;11.23;5.72;;;;;;;9.17;61.08;99285.59;3364264;29;20053;-72
2021/10/17 03:08:38;;;;;;;7.63;5.60;;;;;;;9.16;61.14;99284.78;3359367;29;20509;-72
2021/10/17 03:10:22;;;;;;;6.88;4.82;;;;;;;9.20;61.17;99282.53;3372919;29;20524;-71
2021/10/17 03:12:03;;;;;;;9.35;5.57;;;;;;;9.25;61.16;99282.78;3362214;29;20041;-72
2021/10/17 03:13:44;;;;;;;7.38;4.68;;;;;;;9.30;60.91;99285.66;3373433;29;20088;-73
2021/10/17 03:15:33;;;;;;;6.65;4.47;;;;;;;9.35;60.75;99275.25;3363132;29;20535;-71
2021/10/17 03:17:14;;;;;;;9.38;4.60;;;;;;;9.35;60.57;99283.22;3386347;29;20055;-71
2021/10/17 03:18:57;;;;;;;8.57;4.72;;;;;;;9.33;60.77;99279.13;3365467;29;20109;-71
2021/10/17 03:20:38;;;;;;;9.68;5.35;;;;;;;9.32;60.62;99277.47;3363978;29;20539;-72
2021/10/17 03:22:19;;;;;;;9.77;5.10;;;;;;;9.25;60.33;99272.13;3363071;29;20079;-73
2021/10/17 03:23:59;;;;;;;6.72;4.65;;;;;;;9.20;60.61;99287.84;3363306;29;20049;-71
2021/10/17 03:25:40;;;;;;;9.35;5.03;;;;;;;9.16;61.01;99279.47;3375065;29;20049;-72
2021/10/17 03:27:21;;;;;;;8.23;4.97;;;;;;;9.11;60.94;99281.03;3362216;29;20052;-71
2021/10/17 03:29:05;;;;;;;7.97;4.88;;;;;;;9.08;61.04;99279.59;3360118;29;20065;-71
2021/10/17 03:30:46;;;;;;;6.95;4.57;;;;;;;9.06;61.27;99294.94;3359620;29;20458;-72
2021/10/17 03:32:27;;;;;;;10.93;5.55;;;;;;;9.02;61.27;99283.03;3359546;29;20435;-73
2021/10/17 03:34:09;;;;;;;8.68;5.15;;;;;;;8.98;61.39;99276.44;3362995;29;20131;-71
2021/10/17 03:35:49;;;;;;;7.40;4.93;;;;;;;8.93;61.18;99285.03;3363208;29;20049;-73
2021/10/17 03:37:31;;;;;;;7.57;5.25;;;;;;;8.89;61.47;99275.78;3361729;29;20055;-72
2021/10/17 03:39:12;;;;;;;7.28;3.97;;;;;;;8.91;61.50;99276.41;3359562;29;20096;-73
2021/10/17 03:40:53;;;;;;;8.35;5.32;;;;;;;9.04;61.28;99281.00;3359383;29;20496;-72
2021/10/17 03:42:34;;;;;;;7.50;5.00;;;;;;;9.07;61.34;99279.78;3372168;29;20060;-73
2021/10/17 03:44:15;;;;;;;7.95;5.30;;;;;;;9.07;61.17;99285.94;3362146;29;20041;-73
2021/10/17 03:45:56;;;;;;;8.07;5.03;;;;;;;8.97;61.26;99280.13;3372067;29;20073;-72
2021/10/17 03:47:41;;;;;;;7.25;4.85;;;;;;;8.90;61.27;99268.63;3361924;29;20120;-72
2021/10/17 03:49:22;;;;;;;8.52;5.38;;;;;;;8.86;61.65;99270.06;3385094;29;20059;-71
2021/10/17 03:51:08;;;;;;;12.48;5.50;;;;;;;8.83;61.56;99278.38;3364070;29;20440;-72
2021/10/17 03:52:49;;;;;;;7.82;5.03;;;;;;;8.79;61.70;99271.84;3372719;29;20048;-73
2021/10/17 03:54:30;;;;;;;8.55;4.88;;;;;;;8.76;61.86;99272.22;3361733;29;20045;-72
2021/10/17 03:56:10;;;;;;;9.02;4.60;;;;;;;8.76;62.04;99273.03;3359277;29;20143;-72
2021/10/17 03:57:52;;;;;;;6.75;4.53;;;;;;;8.80;61.74;99273.47;3359516;29;20068;-72
2021/10/17 03:59:35;;;;;;;9.10;5.43;;;;;;;8.77;61.85;99276.50;3385336;29;20048;-72
2021/10/17 04:01:16;;;;;;;8.38;5.28;;;;;;;8.77;61.74;99277.31;3364423;29;20041;-74
2021/10/17 04:02:56;;;;;;;7.80;5.38;;;;;;;8.76;61.69;99274.88;3359127;29;20053;-74
2021/10/17 04:04:37;;;;;;;8.90;5.35;;;;;;;8.78;61.95;99264.84;3385415;29;20095;-73
2021/10/17 04:06:18;;;;;;;9.07;5.55;;;;;;;8.80;61.75;99268.16;3364126;29;20049;-71
2021/10/17 04:07:58;;;;;;;8.38;5.70;;;;;;;8.87;61.72;99279.66;3358675;29;20163;-73
2021/10/17 04:09:45;;;;;;;9.88;5.40;;;;;;;8.90;61.40;99268.63;3362507;29;20049;-72
2021/10/17 04:11:26;;;;;;;8.23;5.43;;;;;;;8.96;61.52;99278.50;3362890;29;20540;-73
2021/10/17 04:13:08;;;;;;;;;;;;;;;9.07;61.06;99277.94;3362070;29;20044;-72
2021/10/17 04:14:48;;;;;;;10.88;5.30;;;;;;;8.94;60.97;99270.72;3359011;29;19930;-72
2021/10/17 04:16:29;;;;;;;7.25;5.30;;;;;;;8.88;61.33;99266.19;3371820;29;20096;-74
2021/10/17 04:18:10;;;;;;;8.82;5.30;;;;;;;8.88;61.43;99265.34;3361776;29;20104;-72
2021/10/17 04:19:51;;;;;;;8.57;5.60;;;;;;;8.92;61.23;99261.28;3384582;29;20040;-71
2021/10/17 04:21:31;;;;;;;7.60;5.13;;;;;;;8.90;61.38;99265.97;3363956;29;20045;-74
2021/10/17 04:23:12;;;;;;;7.95;5.35;;;;;;;8.93;61.44;99269.09;3359231;29;20481;-72
2021/10/17 04:24:53;;;;;;;9.07;5.90;;;;;;;8.88;61.50;99268.00;3362493;29;20101;-72
2021/10/17 04:26:34;;;;;;;8.70;5.22;;;;;;;8.88;61.59;99275.97;3362393;29;20052;-72
2021/10/17 04:28:15;;;;;;;11.82;5.68;;;;;;;8.90;61.33;99265.97;3361613;29;20069;-72
2021/10/17 04:29:56;;;;;;;7.63;4.82;;;;;;;8.91;61.56;99271.09;3358920;29;20051;-72
2021/10/17 04:31:36;;;;;;;7.78;4.93;;;;;;;8.93;61.60;99268.25;3358860;29;20053;-72
2021/10/17 04:33:17;;;;;;;12.15;5.97;;;;;;;8.94;61.40;99265.41;3384822;29;20511;-73
2021/10/17 04:34:59;;;;;;;7.82;5.32;;;;;;;9.01;61.36;99262.78;3367602;29;20120;-73
2021/10/17 04:36:39;;;;;;;9.60;6.63;;;;;;;9.01;61.29;99270.78;3374140;29;20128;-73
2021/10/17 04:38:20;;;;;;;9.77;5.63;;;;;;;8.98;61.30;99260.50;3348867;29;20474;-73
2021/10/17 04:40:02;;;;;;;10.05;6.43;;;;;;;8.95;61.24;99271.53;3369011;29;20052;-72
2021/10/17 04:41:43;;;;;;;7.90;5.22;;;;;;;8.88;61.29;99273.31;3374261;29;20048;-73
2021/10/17 04:43:24;;;;;;;8.85;5.78;;;;;;;8.83;61.61;99257.13;3364831;29;20080;-72
2021/10/17 04:45:06;;;;;;;9.43;5.88;;;;;;;8.83;61.59;99265.94;3362326;29;20121;-72
2021/10/17 04:46:47;;;;;;;10.10;5.40;;;;;;;8.83;61.52;99273.06;3374275;29;20113;-72
2021/10/17 04:48:27;;;;;;;11.98;6.22;;;;;;;8.80;61.54;99271.63;3364228;29;20053;-72
2021/10/17 04:50:08;;;;;;;9.70;5.50;;;;;;;8.81;61.58;99272.47;3363240;29;20127;-73
2021/10/17 04:51:52;;;;;;;8.40;6.05;;;;;;;8.82;61.62;99258.97;3364901;29;20053;-72
2021/10/17 04:53:33;;;;;;;8.70;5.32;;;;;;;8.89;61.42;99267.81;3389373;29;20051;-72
2021/10/17 04:55:14;;;;;;;7.28;5.25;;;;;;;8.97;61.51;99274.81;3369676;29;20063;-73
2021/10/17 04:56:57;;;;;;;9.60;5.18;;;;;;;8.98;61.24;99273.78;3389845;29;20424;-73
2021/10/17 04:58:39;;;;;;;7.38;5.18;;;;;;;8.99;61.26;99270.13;3366439;29;20135;-72
2021/10/17 05:00:22;;;;;;;8.55;5.43;;;;;;;8.98;61.32;99265.81;3374411;29;20051;-72
2021/10/17 05:02:10;;;;;;;8.10;5.25;;;;;;;9.02;61.28;99267.09;3363881;29;20132;-73
2021/10/17 05:03:50;;;;;;;10.07;5.28;;;;;;;9.05;61.09;99272.00;3374137;29;20045;-72
2021/10/17 05:05:31;;;;;;;11.57;5.78;;;;;;;9.11;60.99;99281.88;3363293;29;20084;-72
2021/10/17 05:07:13;;;;;;;10.77;6.45;;;;;;;9.14;60.85;99280.66;3360855;29;20131;-73
2021/10/17 05:08:54;;;;;;;12.07;4.72;;;;;;;9.21;60.88;99283.34;3360980;29;20063;-72
2021/10/17 05:10:35;;;;;;;8.98;5.32;;;;;;;9.25;60.60;99266.81;3373803;29;20496;-73
2021/10/17 05:12:17;;;;;;;8.25;5.88;;;;;;;9.35;60.36;99272.59;3353024;29;20049;-71
2021/10/17 05:13:58;;;;;;;7.25;4.85;;;;;;;9.47;60.10;99269.38;3384591;29;20460;-72
2021/10/17 05:15:39;;;;;;;7.13;5.45;;;;;;;9.59;59.90;99284.56;3366376;29;20420;-72
2021/10/17 05:17:20;;;;;;;9.20;5.13;;;;;;;9.63;59.92;99285.00;3374071;29;20081;-71
2021/10/17 05:19:01;;;;;;;8.05;5.00;;;;;;;9.64;59.76;99285.81;3366839;29;20041;-71
2021/10/17 05:20:44;;;;;;;8.98;5.80;;;;;;;9.70;59.76;99283.19;3363600;29;20484;-73
2021/10/17 05:22:25;;;;;;;9.93;5.50;;;;;;;9.76;59.61;99290.38;3386860;29;20051;-73
2021/10/17 05:24:06;;;;;;;9.35;5.32;;;;;;;9.85;59.33;99283.03;3366119;29;20045;-73
2021/10/17 05:25:47;;;;;;;10.15;6.13;;;;;;;9.96;59.18;99289.59;3361384;29;20049;-73
2021/10/17 05:27:27;;;;;;;13.95;6.60;;;;;;;10.03;59.02;99291.28;3386608;29;20040;-73
2021/10/17 05:29:08;;;;;;;8.80;6.15;;;;;;;10.14;58.77;99286.38;3369373;29;20100;-72
2021/10/17 05:30:49;;;;;;;11.50;6.47;;;;;;;10.33;58.30;99290.16;3364335;29;20049;-71
2021/10/17 05:32:30;;;;;;;7.93;5.73;;;;;;;10.51;58.03;99286.88;3363460;29;20081;-72
2021/10/17 05:34:11;;;;;;;13.25;6.63;;;;;;;10.64;57.67;99294.91;3360895;29;20053;-73
2021/10/17 05:35:52;;;;;;;9.88;4.97;;;;;;;10.75;57.28;99280.13;3360475;29;20689;-72
2021/10/17 05:37:33;;;;;;;7.72;5.35;;;;;;;10.85;56.98;99283.19;3363024;29;20049;-73
2021/10/17 05:39:14;;;;;;;8.13;4.63;;;;;;;11.05;56.62;99283.19;3373770;29;20040;-72
2021/10/17 05:40:55;;;;;;;10.10;5.80;;;;;;;11.27;55.80;99292.56;3366850;29;20041;-73
2021/10/17 05:42:36;;;;;;;8.23;5.97;;;;;;;11.41;55.43;99293.38;3363108;29;20055;-74
2021/10/17 05:44:17;;;;;;;10.38;6.72;;;;;;;11.47;55.11;99291.69;3386613;29;20036;-73
2021/10/17 05:45:58;;;;;;;8.43;5.22;;;;;;;11.63;55.06;99293.09;3365770;29;20052;-71
2021/10/17 05:47:39;;;;;;;11.93;6.15;;;;;;;11.79;54.74;99293.41;3373560;29;20548;-73
2021/10/17 05:49:20;;;;;;;8.00;6.22;;;;;;;11.88;54.25;99296.72;3363326;29;20120;-73
2021/10/17 05:51:00;;;;;;;10.07;6.35;;;;;;;11.91;54.10;99287.44;3360589;29;20049;-72
2021/10/17 05:52:41;;;;;;;12.80;7.43;;;;;;;11.98;53.75;99293.59;3360763;29;20052;-72
2021/10/17 05:54:23;;;;;;;14.05;6.85;;;;;;;12.06;53.51;99295.19;3363283;29;20080;-73
2021/10/17 05:56:04;;;;;;;12.05;7.18;;;;;;;12.22;53.24;99298.16;3386410;29;20044;-73
2021/10/17 05:57:45;;;;;;;9.10;6.45;;;;;;;12.40;52.77;99296.63;3365862;29;20106;-73
2021/10/17 05:59:26;;;;;;;9.60;6.25;;;;;;;12.54;52.65;99300.00;3360585;29;20556;-74
2021/10/17 06:01:06;;;;;;;13.80;6.88;;;;;;;12.62;52.26;99289.88;3386448;29;20046;-74
2021/10/17 06:02:53;;;;;;;10.43;6.22;;;;;;;12.71;52.14;99293.09;3364918;29;20509;-73
2021/10/17 06:04:34;;;;;;;9.90;6.35;;;;;;;12.77;51.83;99286.06;3362852;29;20055;-73
2021/10/17 06:06:19;;;;;;;9.55;6.15;;;;;;;12.79;51.67;99292.00;3386906;29;20055;-73
2021/10/17 06:08:00;;;;;;;14.67;8.00;;;;;;;12.75;51.65;99293.47;3365249;29;20088;-73
2021/10/17 06:09:43;;;;;;;9.55;5.93;;;;;;;12.62;51.85;99295.22;3360667;29;20056;-71
2021/10/17 06:11:25;;;;;;;11.30;6.47;;;;;;;12.43;51.81;99285.50;3360821;29;20048;-72
2021/10/17 06:13:07;;;;;;;13.65;7.45;;;;;;;12.37;52.02;99299.72;3360771;29;20041;-72
2021/10/17 06:14:48;;;;;;;10.55;6.10;;;;;;;12.30;52.41;99304.28;3386436;29;20112;-73
2021/10/17 06:16:28;;;;;;;8.20;5.38;;;;;;;12.31;52.25;99297.91;3365632;29;20069;-73
2021/10/17 06:18:11;;;;;;;9.00;5.53;;;;;;;12.29;52.11;99300.81;3362957;29;20041;-73
2021/10/17 06:19:52;;;;;;;14.25;6.13;;;;;;;12.25;52.19;99298.78;3363926;29;20045;-74
2021/10/17 06:21:32;;;;;;;8.32;5.60;;;;;;;12.20;52.19;99299.41;3362795;29;20068;-72
2021/10/17 06:23:13;;;;;;;8.70;5.78;;;;;;;12.18;52.24;99294.28;3373260;29;20112;-72
2021/10/17 06:24:53;;;;;;;7.93;5.00;;;;;;;12.26;52.25;99293.19;3363110;29;20522;-73
2021/10/17 06:26:34;;;;;;;11.63;6.75;;;;;;;12.28;52.11;99295.66;3360304;29;20102;-73
2021/10/17 06:28:15;;;;;;;9.55;5.40;;;;;;;12.35;51.86;99304.47;3386306;29;20052;-73
2021/10/17 06:29:56;;;;;;;10.40;6.03;;;;;;;12.33;51.98;99301.19;3368936;29;20069;-73
2021/10/17 06:31:37;;;;;;;8.95;6.47;;;;;;;12.37;52.02;99305.06;3388623;29;20451;-73
2021/10/17 06:33:19;;;;;;;7.30;5.35;;;;;;;12.45;51.71;99304.81;3378242;29;20036;-72
2021/10/17 06:34:59;;;;;;;13.57;6.32;;;;;;;12.40;51.56;99307.31;3362487;29;20077;-71
2021/10/17 06:36:40;;;;;;;11.30;5.93;;;;;;;12.42;51.81;99306.06;3360165;29;20077;-73
2021/10/17 06:38:21;;;;;;;7.72;4.85;;;;;;;12.38;51.81;99304.03;3359978;29;20055;-73
2021/10/17 06:40:02;;;;;;;10.65;5.68;;;;;;;12.33;51.98;99310.00;3359847;29;20131;-72
2021/10/17 06:41:43;;;;;;;7.80;5.38;;;;;;;12.27;51.92;99297.53;3360081;29;20417;-73
2021/10/17 06:43:30;;;;;;;10.07;5.45;;;;;;;12.24;51.99;99308.66;3360790;29;20045;-72
2021/10/17 06:45:49;;;;;;;10.02;6.60;;;;;;;12.22;52.08;99306.19;3357392;29;20049;-73
2021/10/17 06:47:32;;;;;;;12.00;5.97;;;;;;;12.13;52.20;99303.97;3362450;29;20125;-72
2021/10/17 06:49:14;;;;;;;7.45;4.97;;;;;;;12.09;52.31;99305.44;3360070;29;20052;-74
2021/10/17 06:50:56;;;;;;;7.88;5.13;;;;;;;12.08;52.58;99303.78;3360195;29;20104;-74
2021/10/17 06:52:36;;;;;;;13.05;5.50;;;;;;;12.11;52.37;99311.41;3385782;29;20173;-72
2021/10/17 06:54:17;;;;;;;9.02;5.45;;;;;;;12.11;52.45;99314.88;3365145;29;20047;-74
2021/10/17 06:55:58;;;;;;;10.15;6.22;;;;;;;12.15;52.43;99316.06;3363413;29;20045;-71
2021/10/17 06:57:40;;;;;;;8.10;5.75;;;;;;;12.08;52.37;99307.31;3362559;29;20044;-73
2021/10/17 06:59:21;;;;;;;10.25;6.13;;;;;;;12.06;52.44;99313.88;3359926;29;20533;-73
2021/10/17 07:01:02;;;;;;;14.13;6.47;;;;;;;12.04;52.56;99314.09;3363168;29;20180;-74
2021/10/17 07:03:02;;;;;;;10.82;5.78;;;;;;;12.04;52.65;99308.75;3362487;29;20051;-73
2021/10/17 07:04:43;;;;;;;11.32;6.35;;;;;;;12.13;52.69;99307.47;3362187;29;20101;-73
2021/10/17 07:06:23;;;;;;;9.82;5.72;;;;;;;12.16;52.54;99307.03;3363159;29;20045;-72
2021/10/17 07:08:14;;;;;;;9.23;5.82;;;;;;;12.14;52.62;99308.28;3388037;29;20079;-72
2021/10/17 07:09:55;;;;;;;9.83;5.47;;;;;;;12.15;52.43;99308.06;3352024;29;20117;-73
2021/10/17 07:11:55;;;;;;;12.73;6.85;;;;;;;12.08;52.70;99299.28;3365290;29;20056;-73
2021/10/17 07:13:38;;;;;;;12.95;6.35;;;;;;;12.10;52.71;99305.22;3361649;29;20105;-73
2021/10/17 07:15:21;;;;;;;8.73;5.82;;;;;;;12.04;52.64;99306.06;3362138;29;20108;-72
2021/10/17 07:17:10;;;;;;;10.23;6.05;;;;;;;12.04;52.87;99302.59;3362238;29;20109;-73
2021/10/17 07:18:50;;;;;;;11.80;5.25;;;;;;;12.15;52.76;99310.72;3359607;29;20477;-72
2021/10/17 07:20:31;;;;;;;10.10;5.95;;;;;;;12.15;52.74;99313.41;3385333;29;20052;-72
2021/10/17 07:22:13;;;;;;;10.23;5.85;;;;;;;12.13;52.69;99322.66;3367982;29;20448;-72
2021/10/17 07:23:59;;;;;;;7.97;5.35;;;;;;;12.08;52.81;99325.16;3361842;29;20049;-72
2021/10/17 07:25:40;;;;;;;10.68;5.82;;;;;;;12.09;52.90;99327.63;3362056;29;20089;-73
2021/10/17 07:27:20;;;;;;;9.68;6.32;;;;;;;12.07;52.84;99329.69;3362173;29;20158;-73
2021/10/17 07:29:01;;;;;;;9.27;5.63;;;;;;;12.04;52.80;99324.78;3346306;29;20562;-72
2021/10/17 07:30:42;;;;;;;11.85;6.13;;;;;;;12.00;52.90;99323.53;3359692;29;20425;-75
2021/10/17 07:32:23;;;;;;;14.85;5.80;;;;;;;11.93;53.13;99323.59;3385394;29;20183;-72
2021/10/17 07:34:03;;;;;;;8.95;5.18;;;;;;;11.85;53.35;99315.78;3364540;29;20152;-72
2021/10/17 07:35:44;;;;;;;14.48;6.18;;;;;;;11.79;53.35;99321.97;3385395;29;20042;-72
2021/10/17 07:37:25;;;;;;;8.80;5.28;;;;;;;11.78;53.48;99331.03;3368096;29;20049;-72
2021/10/17 07:39:05;;;;;;;8.18;5.35;;;;;;;11.72;53.47;99322.00;3363030;29;20088;-72
2021/10/17 07:40:50;;;;;;;9.65;6.20;;;;;;;11.57;53.63;99318.78;3362095;29;20049;-74
2021/10/17 07:42:30;;;;;;;8.88;5.55;;;;;;;11.52;53.79;99322.06;3359245;29;20108;-73
2021/10/17 07:44:13;;;;;;;6.60;4.47;;;;;;;11.43;54.24;99325.97;3359809;29;20136;-72
2021/10/17 07:46:08;;;;;;;9.95;5.60;;;;;;;11.42;54.27;99328.88;3387193;29;20051;-73
2021/10/17 07:47:50;;;;;;;8.35;5.20;;;;;;;11.40;54.23;99322.91;3364374;29;20487;-72
2021/10/17 07:49:31;;;;;;;9.05;5.90;;;;;;;11.43;54.24;99327.81;3358938;29;20052;-72
2021/10/17 07:51:12;;;;;;;10.15;5.45;;;;;;;11.48;53.99;99298.66;3385139;29;20055;-74
2021/10/17 07:52:52;;;;;;;11.38;4.97;;;;;;;11.56;53.98;99328.63;3364660;29;20600;-71
2021/10/17 07:54:43;;;;;;;8.23;4.97;;;;;;;11.52;53.91;99329.25;3386327;29;20508;-72
2021/10/17 07:56:26;;;;;;;10.85;6.03;;;;;;;11.43;54.13;99330.50;3364459;29;20072;-75
2021/10/17 07:58:08;;;;;;;12.63;6.35;;;;;;;11.37;54.31;99342.84;3372075;29;20416;-74
2021/10/17 07:59:56;;;;;;;9.73;5.63;;;;;;;11.31;54.48;99347.16;3362124;29;20077;-73
2021/10/17 08:01:41;;;;;;;11.25;6.13;;;;;;;11.26;54.62;99357.63;3360291;29;20049;-73
2021/10/17 08:04:03;;;;;;;9.27;5.70;;;;;;;11.21;54.67;99344.09;3361967;29;20144;-72